<?xml version="1.0" encoding="UTF-8" standalone="no" ?>
<gpx xmlns="http://www.topografix.com/GPX/1/1" xmlns:xsi="http://www.w3.org/2001/XMLSchema-instance" xsi:schemaLocation="http://www.topografix.com/GPX/1/1 http://www.topografix.com/GPX/1/1/gpx.xsd" version="1.1" creator="VisuGPX - https://www.visugpx.com">
  <metadata>
    <name>2017-10-15 - VTT retour Laffrey</name>
    <desc><![CDATA[Chemin pour rentrer sans passer par la rampe de Laffrey]]></desc>
  </metadata>
  <trk>
    <name><![CDATA[2017-10-15 - VTT retour Laffrey]]></name>
    <trkseg>
      <trkpt lat="45.02578" lon="5.77301">
        <ele>903.3</ele>
        <time>2017-10-15T12:07:36Z</time>
      </trkpt>
      <trkpt lat="45.02584" lon="5.77321">
        <ele>915.31</ele>
        <time>2017-10-15T12:08:07Z</time>
      </trkpt>
      <trkpt lat="45.02586" lon="5.77324">
        <ele>911.47</ele>
        <time>2017-10-15T12:08:27Z</time>
      </trkpt>
      <trkpt lat="45.02588" lon="5.7733">
        <ele>911.47</ele>
        <time>2017-10-15T12:08:30Z</time>
      </trkpt>
      <trkpt lat="45.02588" lon="5.77339">
        <ele>912.43</ele>
        <time>2017-10-15T12:08:34Z</time>
      </trkpt>
      <trkpt lat="45.02594" lon="5.77376">
        <ele>915.31</ele>
        <time>2017-10-15T12:08:47Z</time>
      </trkpt>
      <trkpt lat="45.02621" lon="5.77445">
        <ele>921.08</ele>
        <time>2017-10-15T12:09:18Z</time>
      </trkpt>
      <trkpt lat="45.02611" lon="5.77506">
        <ele>921.08</ele>
        <time>2017-10-15T12:09:35Z</time>
      </trkpt>
      <trkpt lat="45.02637" lon="5.77672">
        <ele>931.17</ele>
        <time>2017-10-15T12:10:23Z</time>
      </trkpt>
      <trkpt lat="45.02635" lon="5.77743">
        <ele>939.35</ele>
        <time>2017-10-15T12:10:56Z</time>
      </trkpt>
      <trkpt lat="45.02676" lon="5.77791">
        <ele>945.11</ele>
        <time>2017-10-15T12:11:30Z</time>
      </trkpt>
      <trkpt lat="45.02734" lon="5.77863">
        <ele>947.04</ele>
        <time>2017-10-15T12:11:56Z</time>
      </trkpt>
      <trkpt lat="45.02769" lon="5.77872">
        <ele>951.84</ele>
        <time>2017-10-15T12:12:47Z</time>
      </trkpt>
      <trkpt lat="45.02828" lon="5.77871">
        <ele>954.73</ele>
        <time>2017-10-15T12:13:15Z</time>
      </trkpt>
      <trkpt lat="45.02878" lon="5.77888">
        <ele>955.21</ele>
        <time>2017-10-15T12:13:30Z</time>
      </trkpt>
      <trkpt lat="45.02968" lon="5.77884">
        <ele>958.57</ele>
        <time>2017-10-15T12:13:57Z</time>
      </trkpt>
      <trkpt lat="45.03013" lon="5.77851">
        <ele>961.94</ele>
        <time>2017-10-15T12:14:19Z</time>
      </trkpt>
      <trkpt lat="45.03056" lon="5.77823">
        <ele>961.94</ele>
        <time>2017-10-15T12:14:32Z</time>
      </trkpt>
      <trkpt lat="45.03114" lon="5.77854">
        <ele>967.7</ele>
        <time>2017-10-15T12:14:56Z</time>
      </trkpt>
      <trkpt lat="45.03127" lon="5.77901">
        <ele>972.99</ele>
        <time>2017-10-15T12:15:15Z</time>
      </trkpt>
      <trkpt lat="45.03171" lon="5.77964">
        <ele>980.68</ele>
        <time>2017-10-15T12:15:47Z</time>
      </trkpt>
      <trkpt lat="45.03174" lon="5.77967">
        <ele>981.16</ele>
        <time>2017-10-15T12:15:49Z</time>
      </trkpt>
      <trkpt lat="45.03204" lon="5.77996">
        <ele>979.72</ele>
        <time>2017-10-15T12:16:03Z</time>
      </trkpt>
      <trkpt lat="45.03355" lon="5.78048">
        <ele>996.54</ele>
        <time>2017-10-15T12:17:27Z</time>
      </trkpt>
      <trkpt lat="45.03487" lon="5.78147">
        <ele>1001.35</ele>
        <time>2017-10-15T12:18:27Z</time>
      </trkpt>
      <trkpt lat="45.03498" lon="5.78163">
        <ele>1001.83</ele>
        <time>2017-10-15T12:18:31Z</time>
      </trkpt>
      <trkpt lat="45.03532" lon="5.78177">
        <ele>998.95</ele>
        <time>2017-10-15T12:18:39Z</time>
      </trkpt>
      <trkpt lat="45.03573" lon="5.78179">
        <ele>996.54</ele>
        <time>2017-10-15T12:18:49Z</time>
      </trkpt>
      <trkpt lat="45.03596" lon="5.78215">
        <ele>997.51</ele>
        <time>2017-10-15T12:19:52Z</time>
      </trkpt>
      <trkpt lat="45.03605" lon="5.7835">
        <ele>1002.31</ele>
        <time>2017-10-15T12:20:35Z</time>
      </trkpt>
      <trkpt lat="45.03617" lon="5.78387">
        <ele>1002.79</ele>
        <time>2017-10-15T12:20:51Z</time>
      </trkpt>
      <trkpt lat="45.03638" lon="5.78492">
        <ele>1003.27</ele>
        <time>2017-10-15T12:21:16Z</time>
      </trkpt>
      <trkpt lat="45.03632" lon="5.78569">
        <ele>996.06</ele>
        <time>2017-10-15T12:21:31Z</time>
      </trkpt>
      <trkpt lat="45.03642" lon="5.78606">
        <ele>992.22</ele>
        <time>2017-10-15T12:21:35Z</time>
      </trkpt>
      <trkpt lat="45.03671" lon="5.78735">
        <ele>994.14</ele>
        <time>2017-10-15T12:21:55Z</time>
      </trkpt>
      <trkpt lat="45.03712" lon="5.7878">
        <ele>988.37</ele>
        <time>2017-10-15T12:22:05Z</time>
      </trkpt>
      <trkpt lat="45.03745" lon="5.78813">
        <ele>985.01</ele>
        <time>2017-10-15T12:22:10Z</time>
      </trkpt>
      <trkpt lat="45.0375" lon="5.7883">
        <ele>982.12</ele>
        <time>2017-10-15T12:22:12Z</time>
      </trkpt>
      <trkpt lat="45.03738" lon="5.78893">
        <ele>975.88</ele>
        <time>2017-10-15T12:22:19Z</time>
      </trkpt>
      <trkpt lat="45.03752" lon="5.78982">
        <ele>972.51</ele>
        <time>2017-10-15T12:22:28Z</time>
      </trkpt>
      <trkpt lat="45.03761" lon="5.78977">
        <ele>972.99</ele>
        <time>2017-10-15T12:22:55Z</time>
      </trkpt>
      <trkpt lat="45.03766" lon="5.78967">
        <ele>972.99</ele>
        <time>2017-10-15T12:23:04Z</time>
      </trkpt>
      <trkpt lat="45.03758" lon="5.79012">
        <ele>971.55</ele>
        <time>2017-10-15T12:23:28Z</time>
      </trkpt>
      <trkpt lat="45.03754" lon="5.79047">
        <ele>967.7</ele>
        <time>2017-10-15T12:23:33Z</time>
      </trkpt>
      <trkpt lat="45.03736" lon="5.79065">
        <ele>967.22</ele>
        <time>2017-10-15T12:23:58Z</time>
      </trkpt>
      <trkpt lat="45.03655" lon="5.79069">
        <ele>960.01</ele>
        <time>2017-10-15T12:24:15Z</time>
      </trkpt>
      <trkpt lat="45.03604" lon="5.79069">
        <ele>952.8</ele>
        <time>2017-10-15T12:24:21Z</time>
      </trkpt>
      <trkpt lat="45.03493" lon="5.79036">
        <ele>948</ele>
        <time>2017-10-15T12:25:06Z</time>
      </trkpt>
      <trkpt lat="45.03438" lon="5.7898">
        <ele>948</ele>
        <time>2017-10-15T12:25:32Z</time>
      </trkpt>
      <trkpt lat="45.03435" lon="5.78985">
        <ele>947.52</ele>
        <time>2017-10-15T12:25:35Z</time>
      </trkpt>
      <trkpt lat="45.03457" lon="5.79025">
        <ele>945.59</ele>
        <time>2017-10-15T12:25:46Z</time>
      </trkpt>
      <trkpt lat="45.03529" lon="5.79084">
        <ele>947.04</ele>
        <time>2017-10-15T12:26:06Z</time>
      </trkpt>
      <trkpt lat="45.03563" lon="5.79158">
        <ele>943.19</ele>
        <time>2017-10-15T12:26:17Z</time>
      </trkpt>
      <trkpt lat="45.03525" lon="5.79324">
        <ele>941.27</ele>
        <time>2017-10-15T12:26:41Z</time>
      </trkpt>
      <trkpt lat="45.03591" lon="5.79368">
        <ele>935.98</ele>
        <time>2017-10-15T12:27:19Z</time>
      </trkpt>
      <trkpt lat="45.03618" lon="5.79516">
        <ele>928.77</ele>
        <time>2017-10-15T12:27:46Z</time>
      </trkpt>
      <trkpt lat="45.03691" lon="5.79585">
        <ele>925.41</ele>
        <time>2017-10-15T12:28:03Z</time>
      </trkpt>
      <trkpt lat="45.03764" lon="5.79644">
        <ele>911.47</ele>
        <time>2017-10-15T12:28:17Z</time>
      </trkpt>
      <trkpt lat="45.03777" lon="5.79655">
        <ele>907.14</ele>
        <time>2017-10-15T12:28:20Z</time>
      </trkpt>
      <trkpt lat="45.0381" lon="5.79715">
        <ele>893.2</ele>
        <time>2017-10-15T12:28:31Z</time>
      </trkpt>
      <trkpt lat="45.03844" lon="5.79782">
        <ele>877.34</ele>
        <time>2017-10-15T12:28:44Z</time>
      </trkpt>
      <trkpt lat="45.03871" lon="5.79845">
        <ele>871.57</ele>
        <time>2017-10-15T12:28:54Z</time>
      </trkpt>
      <trkpt lat="45.03888" lon="5.79868">
        <ele>863.4</ele>
        <time>2017-10-15T12:29:02Z</time>
      </trkpt>
      <trkpt lat="45.03902" lon="5.7984">
        <ele>858.59</ele>
        <time>2017-10-15T12:29:48Z</time>
      </trkpt>
      <trkpt lat="45.03893" lon="5.79804">
        <ele>858.11</ele>
        <time>2017-10-15T12:30:00Z</time>
      </trkpt>
      <trkpt lat="45.03884" lon="5.79782">
        <ele>855.23</ele>
        <time>2017-10-15T12:30:18Z</time>
      </trkpt>
      <trkpt lat="45.03901" lon="5.79841">
        <ele>858.59</ele>
        <time>2017-10-15T12:30:56Z</time>
      </trkpt>
      <trkpt lat="45.03909" lon="5.79845">
        <ele>853.79</ele>
        <time>2017-10-15T12:31:04Z</time>
      </trkpt>
      <trkpt lat="45.03915" lon="5.79852">
        <ele>851.87</ele>
        <time>2017-10-15T12:31:07Z</time>
      </trkpt>
      <trkpt lat="45.03924" lon="5.79848">
        <ele>848.98</ele>
        <time>2017-10-15T12:31:11Z</time>
      </trkpt>
      <trkpt lat="45.0392" lon="5.79743">
        <ele>830.72</ele>
        <time>2017-10-15T12:31:37Z</time>
      </trkpt>
      <trkpt lat="45.0394" lon="5.79664">
        <ele>817.26</ele>
        <time>2017-10-15T12:31:54Z</time>
      </trkpt>
      <trkpt lat="45.03944" lon="5.79657">
        <ele>814.85</ele>
        <time>2017-10-15T12:31:57Z</time>
      </trkpt>
      <trkpt lat="45.03978" lon="5.79629">
        <ele>801.4</ele>
        <time>2017-10-15T12:32:13Z</time>
      </trkpt>
      <trkpt lat="45.04014" lon="5.79716">
        <ele>779.29</ele>
        <time>2017-10-15T12:32:38Z</time>
      </trkpt>
      <trkpt lat="45.04031" lon="5.79722">
        <ele>773.04</ele>
        <time>2017-10-15T12:32:45Z</time>
      </trkpt>
      <trkpt lat="45.04077" lon="5.79765">
        <ele>753.33</ele>
        <time>2017-10-15T12:33:04Z</time>
      </trkpt>
      <trkpt lat="45.04088" lon="5.79778">
        <ele>753.33</ele>
        <time>2017-10-15T12:33:15Z</time>
      </trkpt>
      <trkpt lat="45.04094" lon="5.79796">
        <ele>749.97</ele>
        <time>2017-10-15T12:33:21Z</time>
      </trkpt>
      <trkpt lat="45.04098" lon="5.79823">
        <ele>744.2</ele>
        <time>2017-10-15T12:33:27Z</time>
      </trkpt>
      <trkpt lat="45.04117" lon="5.79894">
        <ele>731.22</ele>
        <time>2017-10-15T12:33:53Z</time>
      </trkpt>
      <trkpt lat="45.04125" lon="5.79853">
        <ele>729.3</ele>
        <time>2017-10-15T12:34:07Z</time>
      </trkpt>
      <trkpt lat="45.04136" lon="5.79827">
        <ele>724.01</ele>
        <time>2017-10-15T12:34:15Z</time>
      </trkpt>
      <trkpt lat="45.04134" lon="5.7981">
        <ele>721.61</ele>
        <time>2017-10-15T12:34:17Z</time>
      </trkpt>
      <trkpt lat="45.04133" lon="5.79789">
        <ele>719.68</ele>
        <time>2017-10-15T12:34:19Z</time>
      </trkpt>
      <trkpt lat="45.04136" lon="5.79768">
        <ele>719.2</ele>
        <time>2017-10-15T12:34:21Z</time>
      </trkpt>
      <trkpt lat="45.04163" lon="5.79703">
        <ele>711.99</ele>
        <time>2017-10-15T12:34:30Z</time>
      </trkpt>
      <trkpt lat="45.04169" lon="5.79801">
        <ele>700.46</ele>
        <time>2017-10-15T12:34:46Z</time>
      </trkpt>
      <trkpt lat="45.04181" lon="5.79805">
        <ele>698.05</ele>
        <time>2017-10-15T12:34:52Z</time>
      </trkpt>
      <trkpt lat="45.04195" lon="5.79766">
        <ele>693.73</ele>
        <time>2017-10-15T12:35:05Z</time>
      </trkpt>
      <trkpt lat="45.04189" lon="5.79634">
        <ele>689.88</ele>
        <time>2017-10-15T12:35:39Z</time>
      </trkpt>
      <trkpt lat="45.04194" lon="5.79589">
        <ele>682.19</ele>
        <time>2017-10-15T12:35:49Z</time>
      </trkpt>
      <trkpt lat="45.04196" lon="5.79572">
        <ele>679.31</ele>
        <time>2017-10-15T12:35:51Z</time>
      </trkpt>
      <trkpt lat="45.04209" lon="5.79438">
        <ele>664.89</ele>
        <time>2017-10-15T12:36:09Z</time>
      </trkpt>
      <trkpt lat="45.04237" lon="5.7936">
        <ele>661.04</ele>
        <time>2017-10-15T12:36:20Z</time>
      </trkpt>
      <trkpt lat="45.04242" lon="5.79304">
        <ele>668.73</ele>
        <time>2017-10-15T12:36:41Z</time>
      </trkpt>
      <trkpt lat="45.04259" lon="5.79263">
        <ele>670.66</ele>
        <time>2017-10-15T12:36:57Z</time>
      </trkpt>
      <trkpt lat="45.04261" lon="5.79228">
        <ele>672.58</ele>
        <time>2017-10-15T12:37:13Z</time>
      </trkpt>
      <trkpt lat="45.0426" lon="5.7911">
        <ele>668.73</ele>
        <time>2017-10-15T12:37:42Z</time>
      </trkpt>
      <trkpt lat="45.04263" lon="5.79082">
        <ele>663.45</ele>
        <time>2017-10-15T12:37:45Z</time>
      </trkpt>
      <trkpt lat="45.04276" lon="5.79028">
        <ele>668.25</ele>
        <time>2017-10-15T12:37:53Z</time>
      </trkpt>
      <trkpt lat="45.04281" lon="5.78977">
        <ele>669.22</ele>
        <time>2017-10-15T12:38:08Z</time>
      </trkpt>
      <trkpt lat="45.04276" lon="5.78938">
        <ele>666.33</ele>
        <time>2017-10-15T12:38:21Z</time>
      </trkpt>
      <trkpt lat="45.04281" lon="5.78871">
        <ele>651.43</ele>
        <time>2017-10-15T12:38:33Z</time>
      </trkpt>
      <trkpt lat="45.04306" lon="5.7883">
        <ele>637.97</ele>
        <time>2017-10-15T12:38:41Z</time>
      </trkpt>
      <trkpt lat="45.04344" lon="5.78764">
        <ele>631.24</ele>
        <time>2017-10-15T12:38:51Z</time>
      </trkpt>
      <trkpt lat="45.04347" lon="5.78733">
        <ele>626.44</ele>
        <time>2017-10-15T12:38:55Z</time>
      </trkpt>
      <trkpt lat="45.04352" lon="5.78628">
        <ele>624.99</ele>
        <time>2017-10-15T12:39:13Z</time>
      </trkpt>
      <trkpt lat="45.04353" lon="5.78617">
        <ele>623.55</ele>
        <time>2017-10-15T12:39:15Z</time>
      </trkpt>
      <trkpt lat="45.04349" lon="5.78552">
        <ele>614.9</ele>
        <time>2017-10-15T12:39:24Z</time>
      </trkpt>
      <trkpt lat="45.04371" lon="5.78495">
        <ele>605.29</ele>
        <time>2017-10-15T12:39:35Z</time>
      </trkpt>
      <trkpt lat="45.04453" lon="5.78468">
        <ele>586.06</ele>
        <time>2017-10-15T12:39:56Z</time>
      </trkpt>
      <trkpt lat="45.04443" lon="5.78408">
        <ele>579.81</ele>
        <time>2017-10-15T12:40:09Z</time>
      </trkpt>
      <trkpt lat="45.04438" lon="5.78359">
        <ele>572.12</ele>
        <time>2017-10-15T12:40:21Z</time>
      </trkpt>
      <trkpt lat="45.04506" lon="5.78385">
        <ele>564.91</ele>
        <time>2017-10-15T12:40:37Z</time>
      </trkpt>
      <trkpt lat="45.04523" lon="5.78384">
        <ele>559.62</ele>
        <time>2017-10-15T12:40:41Z</time>
      </trkpt>
      <trkpt lat="45.04548" lon="5.78332">
        <ele>551.45</ele>
        <time>2017-10-15T12:40:52Z</time>
      </trkpt>
      <trkpt lat="45.04557" lon="5.78265">
        <ele>537.03</ele>
        <time>2017-10-15T12:41:06Z</time>
      </trkpt>
      <trkpt lat="45.04567" lon="5.78271">
        <ele>534.63</ele>
        <time>2017-10-15T12:41:10Z</time>
      </trkpt>
      <trkpt lat="45.0457" lon="5.78276">
        <ele>534.63</ele>
        <time>2017-10-15T12:41:13Z</time>
      </trkpt>
      <trkpt lat="45.04572" lon="5.78279">
        <ele>534.63</ele>
        <time>2017-10-15T12:41:15Z</time>
      </trkpt>
      <trkpt lat="45.0459" lon="5.78306">
        <ele>532.23</ele>
        <time>2017-10-15T12:41:46Z</time>
      </trkpt>
      <trkpt lat="45.04603" lon="5.78299">
        <ele>528.86</ele>
        <time>2017-10-15T12:41:50Z</time>
      </trkpt>
      <trkpt lat="45.04607" lon="5.78288">
        <ele>525.98</ele>
        <time>2017-10-15T12:41:52Z</time>
      </trkpt>
      <trkpt lat="45.04613" lon="5.7826">
        <ele>522.13</ele>
        <time>2017-10-15T12:41:56Z</time>
      </trkpt>
      <trkpt lat="45.04595" lon="5.78165">
        <ele>512.04</ele>
        <time>2017-10-15T12:42:11Z</time>
      </trkpt>
      <trkpt lat="45.04586" lon="5.78099">
        <ele>501.46</ele>
        <time>2017-10-15T12:42:18Z</time>
      </trkpt>
      <trkpt lat="45.04549" lon="5.78005">
        <ele>492.81</ele>
        <time>2017-10-15T12:42:30Z</time>
      </trkpt>
      <trkpt lat="45.04536" lon="5.77968">
        <ele>484.64</ele>
        <time>2017-10-15T12:42:37Z</time>
      </trkpt>
      <trkpt lat="45.04538" lon="5.77904">
        <ele>476.47</ele>
        <time>2017-10-15T12:42:45Z</time>
      </trkpt>
      <trkpt lat="45.04516" lon="5.77834">
        <ele>478.39</ele>
        <time>2017-10-15T12:42:56Z</time>
      </trkpt>
      <trkpt lat="45.04515" lon="5.77825">
        <ele>479.35</ele>
        <time>2017-10-15T12:42:59Z</time>
      </trkpt>
      <trkpt lat="45.04513" lon="5.77595">
        <ele>449.07</ele>
        <time>2017-10-15T12:43:26Z</time>
      </trkpt>
      <trkpt lat="45.04509" lon="5.77534">
        <ele>440.9</ele>
        <time>2017-10-15T12:43:34Z</time>
      </trkpt>
      <trkpt lat="45.04528" lon="5.77466">
        <ele>433.21</ele>
        <time>2017-10-15T12:43:44Z</time>
      </trkpt>
      <trkpt lat="45.0453" lon="5.7743">
        <ele>428.4</ele>
        <time>2017-10-15T12:43:49Z</time>
      </trkpt>
      <trkpt lat="45.04595" lon="5.77354">
        <ele>431.77</ele>
        <time>2017-10-15T12:44:17Z</time>
      </trkpt>
      <trkpt lat="45.04625" lon="5.77333">
        <ele>433.21</ele>
        <time>2017-10-15T12:44:30Z</time>
      </trkpt>
      <trkpt lat="45.04663" lon="5.77293">
        <ele>432.73</ele>
        <time>2017-10-15T12:44:46Z</time>
      </trkpt>
      <trkpt lat="45.0468" lon="5.77259">
        <ele>431.29</ele>
        <time>2017-10-15T12:44:55Z</time>
      </trkpt>
      <trkpt lat="45.047" lon="5.77153">
        <ele>425.04</ele>
        <time>2017-10-15T12:45:20Z</time>
      </trkpt>
      <trkpt lat="45.04706" lon="5.77096">
        <ele>417.35</ele>
        <time>2017-10-15T12:45:34Z</time>
      </trkpt>
      <trkpt lat="45.04723" lon="5.77075">
        <ele>413.98</ele>
        <time>2017-10-15T12:45:40Z</time>
      </trkpt>
      <trkpt lat="45.04783" lon="5.76975">
        <ele>410.62</ele>
        <time>2017-10-15T12:45:56Z</time>
      </trkpt>
      <trkpt lat="45.04863" lon="5.76895">
        <ele>417.35</ele>
        <time>2017-10-15T12:46:51Z</time>
      </trkpt>
      <trkpt lat="45.04899" lon="5.76844">
        <ele>416.87</ele>
        <time>2017-10-15T12:47:11Z</time>
      </trkpt>
      <trkpt lat="45.04915" lon="5.76788">
        <ele>419.27</ele>
        <time>2017-10-15T12:47:25Z</time>
      </trkpt>
      <trkpt lat="45.04897" lon="5.76771">
        <ele>419.27</ele>
        <time>2017-10-15T12:47:36Z</time>
      </trkpt>
      <trkpt lat="45.04871" lon="5.76753">
        <ele>419.75</ele>
        <time>2017-10-15T12:47:56Z</time>
      </trkpt>
      <trkpt lat="45.04904" lon="5.76746">
        <ele>414.95</ele>
        <time>2017-10-15T12:48:09Z</time>
      </trkpt>
      <trkpt lat="45.0492" lon="5.76749">
        <ele>413.02</ele>
        <time>2017-10-15T12:48:24Z</time>
      </trkpt>
      <trkpt lat="45.04878" lon="5.76752">
        <ele>418.79</ele>
        <time>2017-10-15T12:48:53Z</time>
      </trkpt>
      <trkpt lat="45.04821" lon="5.76677">
        <ele>416.87</ele>
        <time>2017-10-15T12:49:21Z</time>
      </trkpt>
      <trkpt lat="45.04807" lon="5.76642">
        <ele>413.98</ele>
        <time>2017-10-15T12:49:27Z</time>
      </trkpt>
      <trkpt lat="45.04802" lon="5.76617">
        <ele>413.02</ele>
        <time>2017-10-15T12:49:30Z</time>
      </trkpt>
      <trkpt lat="45.048" lon="5.76508">
        <ele>410.62</ele>
        <time>2017-10-15T12:49:49Z</time>
      </trkpt>
      <trkpt lat="45.04878" lon="5.76465">
        <ele>407.74</ele>
        <time>2017-10-15T12:50:08Z</time>
      </trkpt>
      <trkpt lat="45.04895" lon="5.76424">
        <ele>406.77</ele>
        <time>2017-10-15T12:50:15Z</time>
      </trkpt>
      <trkpt lat="45.04947" lon="5.76339">
        <ele>401.49</ele>
        <time>2017-10-15T12:50:28Z</time>
      </trkpt>
      <trkpt lat="45.04998" lon="5.76273">
        <ele>395.24</ele>
        <time>2017-10-15T12:50:36Z</time>
      </trkpt>
      <trkpt lat="45.05049" lon="5.76211">
        <ele>389.95</ele>
        <time>2017-10-15T12:50:43Z</time>
      </trkpt>
      <trkpt lat="45.05067" lon="5.76198">
        <ele>388.03</ele>
        <time>2017-10-15T12:50:45Z</time>
      </trkpt>
      <trkpt lat="45.05088" lon="5.76198">
        <ele>387.07</ele>
        <time>2017-10-15T12:50:47Z</time>
      </trkpt>
      <trkpt lat="45.05162" lon="5.76217">
        <ele>382.26</ele>
        <time>2017-10-15T12:50:55Z</time>
      </trkpt>
      <trkpt lat="45.05165" lon="5.76238">
        <ele>380.82</ele>
        <time>2017-10-15T12:50:57Z</time>
      </trkpt>
      <trkpt lat="45.05055" lon="5.7639">
        <ele>370.24</ele>
        <time>2017-10-15T12:51:14Z</time>
      </trkpt>
      <trkpt lat="45.05069" lon="5.76414">
        <ele>368.8</ele>
        <time>2017-10-15T12:51:17Z</time>
      </trkpt>
      <trkpt lat="45.05079" lon="5.7641">
        <ele>367.84</ele>
        <time>2017-10-15T12:51:18Z</time>
      </trkpt>
      <trkpt lat="45.05142" lon="5.76381">
        <ele>364</ele>
        <time>2017-10-15T12:51:26Z</time>
      </trkpt>
      <trkpt lat="45.05252" lon="5.76398">
        <ele>358.71</ele>
        <time>2017-10-15T12:51:38Z</time>
      </trkpt>
      <trkpt lat="45.05501" lon="5.76422">
        <ele>339.48</ele>
        <time>2017-10-15T12:52:01Z</time>
      </trkpt>
      <trkpt lat="45.05602" lon="5.76441">
        <ele>331.79</ele>
        <time>2017-10-15T12:52:11Z</time>
      </trkpt>
      <trkpt lat="45.05621" lon="5.76468">
        <ele>327.95</ele>
        <time>2017-10-15T12:52:14Z</time>
      </trkpt>
      <trkpt lat="45.05676" lon="5.76516">
        <ele>322.18</ele>
        <time>2017-10-15T12:52:24Z</time>
      </trkpt>
      <trkpt lat="45.05679" lon="5.76842">
        <ele>314.49</ele>
        <time>2017-10-15T12:53:22Z</time>
      </trkpt>
      <trkpt lat="45.05648" lon="5.76892">
        <ele>315.93</ele>
        <time>2017-10-15T12:53:34Z</time>
      </trkpt>
      <trkpt lat="45.05688" lon="5.76948">
        <ele>319.78</ele>
        <time>2017-10-15T12:53:58Z</time>
      </trkpt>
      <trkpt lat="45.05721" lon="5.7698">
        <ele>318.33</ele>
        <time>2017-10-15T12:54:11Z</time>
      </trkpt>
      <trkpt lat="45.05948" lon="5.7651">
        <ele>313.53</ele>
        <time>2017-10-15T12:55:33Z</time>
      </trkpt>
      <trkpt lat="45.06012" lon="5.76424">
        <ele>313.05</ele>
        <time>2017-10-15T12:55:50Z</time>
      </trkpt>
      <trkpt lat="45.06166" lon="5.76301">
        <ele>311.6</ele>
        <time>2017-10-15T12:56:26Z</time>
      </trkpt>
      <trkpt lat="45.06258" lon="5.76253">
        <ele>310.64</ele>
        <time>2017-10-15T12:56:46Z</time>
      </trkpt>
      <trkpt lat="45.06547" lon="5.76182">
        <ele>308.24</ele>
        <time>2017-10-15T12:57:45Z</time>
      </trkpt>
      <trkpt lat="45.06572" lon="5.76182">
        <ele>307.76</ele>
        <time>2017-10-15T12:57:50Z</time>
      </trkpt>
      <trkpt lat="45.06586" lon="5.76187">
        <ele>307.28</ele>
        <time>2017-10-15T12:57:53Z</time>
      </trkpt>
      <trkpt lat="45.06667" lon="5.76186">
        <ele>304.88</ele>
        <time>2017-10-15T12:58:07Z</time>
      </trkpt>
      <trkpt lat="45.06917" lon="5.76217">
        <ele>304.88</ele>
        <time>2017-10-15T12:58:56Z</time>
      </trkpt>
      <trkpt lat="45.0698" lon="5.76226">
        <ele>302.95</ele>
        <time>2017-10-15T12:59:09Z</time>
      </trkpt>
      <trkpt lat="45.07115" lon="5.76304">
        <ele>303.43</ele>
        <time>2017-10-15T12:59:39Z</time>
      </trkpt>
      <trkpt lat="45.07123" lon="5.76305">
        <ele>303.43</ele>
        <time>2017-10-15T12:59:41Z</time>
      </trkpt>
      <trkpt lat="45.07658" lon="5.76548">
        <ele>299.59</ele>
        <time>2017-10-15T13:01:37Z</time>
      </trkpt>
      <trkpt lat="45.07667" lon="5.76574">
        <ele>299.11</ele>
        <time>2017-10-15T13:01:42Z</time>
      </trkpt>
      <trkpt lat="45.07678" lon="5.766">
        <ele>299.11</ele>
        <time>2017-10-15T13:01:49Z</time>
      </trkpt>
      <trkpt lat="45.07694" lon="5.76606">
        <ele>298.63</ele>
        <time>2017-10-15T13:01:53Z</time>
      </trkpt>
      <trkpt lat="45.07709" lon="5.76586">
        <ele>298.63</ele>
        <time>2017-10-15T13:01:59Z</time>
      </trkpt>
      <trkpt lat="45.07787" lon="5.76607">
        <ele>298.15</ele>
        <time>2017-10-15T13:02:18Z</time>
      </trkpt>
      <trkpt lat="45.07797" lon="5.76611">
        <ele>297.67</ele>
        <time>2017-10-15T13:02:28Z</time>
      </trkpt>
      <trkpt lat="45.07883" lon="5.76632">
        <ele>297.67</ele>
        <time>2017-10-15T13:03:14Z</time>
      </trkpt>
      <trkpt lat="45.07951" lon="5.76622">
        <ele>296.7</ele>
        <time>2017-10-15T13:03:29Z</time>
      </trkpt>
      <trkpt lat="45.08099" lon="5.76504">
        <ele>295.26</ele>
        <time>2017-10-15T13:04:07Z</time>
      </trkpt>
      <trkpt lat="45.0815" lon="5.76586">
        <ele>294.3</ele>
        <time>2017-10-15T13:04:31Z</time>
      </trkpt>
      <trkpt lat="45.08225" lon="5.76577">
        <ele>294.3</ele>
        <time>2017-10-15T13:04:53Z</time>
      </trkpt>
      <trkpt lat="45.08231" lon="5.76587">
        <ele>294.3</ele>
        <time>2017-10-15T13:04:56Z</time>
      </trkpt>
      <trkpt lat="45.08248" lon="5.76618">
        <ele>294.3</ele>
        <time>2017-10-15T13:05:02Z</time>
      </trkpt>
      <trkpt lat="45.08286" lon="5.7663">
        <ele>292.38</ele>
        <time>2017-10-15T13:05:09Z</time>
      </trkpt>
      <trkpt lat="45.08615" lon="5.76723">
        <ele>298.15</ele>
        <time>2017-10-15T13:06:21Z</time>
      </trkpt>
      <trkpt lat="45.08641" lon="5.76709">
        <ele>301.51</ele>
        <time>2017-10-15T13:06:35Z</time>
      </trkpt>
      <trkpt lat="45.08661" lon="5.76637">
        <ele>307.28</ele>
        <time>2017-10-15T13:07:06Z</time>
      </trkpt>
      <trkpt lat="45.08691" lon="5.76475">
        <ele>320.74</ele>
        <time>2017-10-15T13:08:07Z</time>
      </trkpt>
      <trkpt lat="45.08712" lon="5.76399">
        <ele>326.99</ele>
        <time>2017-10-15T13:08:35Z</time>
      </trkpt>
      <trkpt lat="45.08719" lon="5.76343">
        <ele>325.06</ele>
        <time>2017-10-15T13:08:48Z</time>
      </trkpt>
      <trkpt lat="45.0872" lon="5.76321">
        <ele>324.1</ele>
        <time>2017-10-15T13:08:51Z</time>
      </trkpt>
      <trkpt lat="45.08678" lon="5.76128">
        <ele>336.12</ele>
        <time>2017-10-15T13:09:51Z</time>
      </trkpt>
      <trkpt lat="45.08659" lon="5.75629">
        <ele>390.91</ele>
        <time>2017-10-15T13:14:44Z</time>
      </trkpt>
      <trkpt lat="45.08656" lon="5.75619">
        <ele>391.87</ele>
        <time>2017-10-15T13:14:56Z</time>
      </trkpt>
      <trkpt lat="45.08634" lon="5.75525">
        <ele>387.55</ele>
        <time>2017-10-15T13:15:15Z</time>
      </trkpt>
      <trkpt lat="45.08629" lon="5.75482">
        <ele>381.3</ele>
        <time>2017-10-15T13:15:19Z</time>
      </trkpt>
      <trkpt lat="45.08604" lon="5.75247">
        <ele>379.38</ele>
        <time>2017-10-15T13:15:44Z</time>
      </trkpt>
      <trkpt lat="45.08601" lon="5.75059">
        <ele>399.08</ele>
        <time>2017-10-15T13:17:23Z</time>
      </trkpt>
      <trkpt lat="45.08626" lon="5.7495">
        <ele>412.06</ele>
        <time>2017-10-15T13:18:48Z</time>
      </trkpt>
      <trkpt lat="45.08641" lon="5.74904">
        <ele>416.39</ele>
        <time>2017-10-15T13:19:11Z</time>
      </trkpt>
      <trkpt lat="45.08652" lon="5.74893">
        <ele>418.79</ele>
        <time>2017-10-15T13:19:20Z</time>
      </trkpt>
      <trkpt lat="45.08778" lon="5.74832">
        <ele>413.02</ele>
        <time>2017-10-15T13:19:49Z</time>
      </trkpt>
      <trkpt lat="45.08992" lon="5.74902">
        <ele>417.35</ele>
        <time>2017-10-15T13:20:38Z</time>
      </trkpt>
      <trkpt lat="45.09088" lon="5.74934">
        <ele>416.87</ele>
        <time>2017-10-15T13:21:01Z</time>
      </trkpt>
      <trkpt lat="45.0916" lon="5.74948">
        <ele>419.75</ele>
        <time>2017-10-15T13:21:17Z</time>
      </trkpt>
      <trkpt lat="45.09201" lon="5.74954">
        <ele>418.79</ele>
        <time>2017-10-15T13:21:28Z</time>
      </trkpt>
      <trkpt lat="45.09271" lon="5.74932">
        <ele>420.23</ele>
        <time>2017-10-15T13:21:44Z</time>
      </trkpt>
      <trkpt lat="45.09318" lon="5.74945">
        <ele>422.16</ele>
        <time>2017-10-15T13:21:56Z</time>
      </trkpt>
      <trkpt lat="45.09586" lon="5.75188">
        <ele>415.43</ele>
        <time>2017-10-15T13:22:50Z</time>
      </trkpt>
      <trkpt lat="45.09871" lon="5.75361">
        <ele>421.68</ele>
        <time>2017-10-15T13:23:56Z</time>
      </trkpt>
      <trkpt lat="45.09897" lon="5.75393">
        <ele>424.56</ele>
        <time>2017-10-15T13:24:09Z</time>
      </trkpt>
      <trkpt lat="45.09915" lon="5.75405">
        <ele>421.68</ele>
        <time>2017-10-15T13:24:15Z</time>
      </trkpt>
      <trkpt lat="45.09941" lon="5.75383">
        <ele>417.35</ele>
        <time>2017-10-15T13:24:23Z</time>
      </trkpt>
      <trkpt lat="45.09952" lon="5.75375">
        <ele>414.47</ele>
        <time>2017-10-15T13:24:26Z</time>
      </trkpt>
      <trkpt lat="45.09965" lon="5.75373">
        <ele>412.06</ele>
        <time>2017-10-15T13:24:28Z</time>
      </trkpt>
      <trkpt lat="45.0998" lon="5.75373">
        <ele>408.7</ele>
        <time>2017-10-15T13:24:30Z</time>
      </trkpt>
      <trkpt lat="45.10007" lon="5.75379">
        <ele>406.29</ele>
        <time>2017-10-15T13:24:33Z</time>
      </trkpt>
      <trkpt lat="45.10309" lon="5.75542">
        <ele>378.42</ele>
        <time>2017-10-15T13:25:14Z</time>
      </trkpt>
      <trkpt lat="45.10356" lon="5.75533">
        <ele>373.61</ele>
        <time>2017-10-15T13:25:21Z</time>
      </trkpt>
      <trkpt lat="45.10476" lon="5.75723">
        <ele>378.42</ele>
        <time>2017-10-15T13:25:58Z</time>
      </trkpt>
      <trkpt lat="45.10517" lon="5.75743">
        <ele>377.94</ele>
        <time>2017-10-15T13:26:11Z</time>
      </trkpt>
      <trkpt lat="45.10542" lon="5.75791">
        <ele>380.34</ele>
        <time>2017-10-15T13:26:27Z</time>
      </trkpt>
      <trkpt lat="45.10627" lon="5.75873">
        <ele>389.47</ele>
        <time>2017-10-15T13:27:16Z</time>
      </trkpt>
      <trkpt lat="45.10673" lon="5.75899">
        <ele>389.47</ele>
        <time>2017-10-15T13:27:32Z</time>
      </trkpt>
      <trkpt lat="45.10776" lon="5.75886">
        <ele>388.03</ele>
        <time>2017-10-15T13:28:00Z</time>
      </trkpt>
      <trkpt lat="45.10788" lon="5.75847">
        <ele>386.11</ele>
        <time>2017-10-15T13:28:08Z</time>
      </trkpt>
      <trkpt lat="45.10778" lon="5.7577">
        <ele>382.74</ele>
        <time>2017-10-15T13:28:18Z</time>
      </trkpt>
      <trkpt lat="45.10838" lon="5.75733">
        <ele>381.3</ele>
        <time>2017-10-15T13:28:29Z</time>
      </trkpt>
      <trkpt lat="45.10875" lon="5.75756">
        <ele>381.3</ele>
        <time>2017-10-15T13:28:36Z</time>
      </trkpt>
      <trkpt lat="45.10909" lon="5.75817">
        <ele>384.66</ele>
        <time>2017-10-15T13:28:52Z</time>
      </trkpt>
      <trkpt lat="45.10943" lon="5.75836">
        <ele>385.15</ele>
        <time>2017-10-15T13:29:19Z</time>
      </trkpt>
      <trkpt lat="45.11107" lon="5.75868">
        <ele>393.8</ele>
        <time>2017-10-15T13:30:12Z</time>
      </trkpt>
      <trkpt lat="45.11161" lon="5.75846">
        <ele>400.05</ele>
        <time>2017-10-15T13:30:37Z</time>
      </trkpt>
      <trkpt lat="45.11195" lon="5.75876">
        <ele>403.89</ele>
        <time>2017-10-15T13:30:54Z</time>
      </trkpt>
      <trkpt lat="45.11199" lon="5.75877">
        <ele>403.89</ele>
        <time>2017-10-15T13:30:56Z</time>
      </trkpt>
      <trkpt lat="45.11205" lon="5.75874">
        <ele>404.85</ele>
        <time>2017-10-15T13:30:59Z</time>
      </trkpt>
      <trkpt lat="45.11252" lon="5.75837">
        <ele>406.29</ele>
        <time>2017-10-15T13:31:21Z</time>
      </trkpt>
      <trkpt lat="45.11421" lon="5.75687">
        <ele>407.26</ele>
        <time>2017-10-15T13:32:18Z</time>
      </trkpt>
      <trkpt lat="45.11596" lon="5.75809">
        <ele>403.89</ele>
        <time>2017-10-15T13:32:57Z</time>
      </trkpt>
      <trkpt lat="45.11599" lon="5.75822">
        <ele>403.41</ele>
        <time>2017-10-15T13:32:59Z</time>
      </trkpt>
      <trkpt lat="45.1159" lon="5.75983">
        <ele>404.85</ele>
        <time>2017-10-15T13:33:23Z</time>
      </trkpt>
      <trkpt lat="45.11623" lon="5.75996">
        <ele>404.85</ele>
        <time>2017-10-15T13:33:30Z</time>
      </trkpt>
      <trkpt lat="45.1183" lon="5.76022">
        <ele>401.49</ele>
        <time>2017-10-15T13:34:05Z</time>
      </trkpt>
      <trkpt lat="45.11924" lon="5.75998">
        <ele>400.53</ele>
        <time>2017-10-15T13:34:22Z</time>
      </trkpt>
      <trkpt lat="45.11996" lon="5.75975">
        <ele>399.08</ele>
        <time>2017-10-15T13:34:34Z</time>
      </trkpt>
      <trkpt lat="45.12169" lon="5.75971">
        <ele>391.87</ele>
        <time>2017-10-15T13:35:02Z</time>
      </trkpt>
      <trkpt lat="45.12377" lon="5.75983">
        <ele>390.43</ele>
        <time>2017-10-15T13:35:34Z</time>
      </trkpt>
      <trkpt lat="45.12537" lon="5.76064">
        <ele>387.55</ele>
        <time>2017-10-15T13:36:02Z</time>
      </trkpt>
      <trkpt lat="45.12603" lon="5.76098">
        <ele>384.18</ele>
        <time>2017-10-15T13:36:13Z</time>
      </trkpt>
      <trkpt lat="45.12683" lon="5.7616">
        <ele>380.82</ele>
        <time>2017-10-15T13:36:25Z</time>
      </trkpt>
      <trkpt lat="45.12787" lon="5.76264">
        <ele>379.38</ele>
        <time>2017-10-15T13:36:42Z</time>
      </trkpt>
      <trkpt lat="45.12835" lon="5.76331">
        <ele>380.82</ele>
        <time>2017-10-15T13:36:53Z</time>
      </trkpt>
      <trkpt lat="45.1302" lon="5.76502">
        <ele>384.66</ele>
        <time>2017-10-15T13:37:31Z</time>
      </trkpt>
      <trkpt lat="45.13202" lon="5.76639">
        <ele>387.07</ele>
        <time>2017-10-15T13:38:13Z</time>
      </trkpt>
      <trkpt lat="45.1331" lon="5.76735">
        <ele>384.18</ele>
        <time>2017-10-15T13:38:40Z</time>
      </trkpt>
      <trkpt lat="45.13395" lon="5.76762">
        <ele>383.22</ele>
        <time>2017-10-15T13:39:00Z</time>
      </trkpt>
      <trkpt lat="45.13415" lon="5.76773">
        <ele>381.78</ele>
        <time>2017-10-15T13:39:04Z</time>
      </trkpt>
      <trkpt lat="45.13436" lon="5.76786">
        <ele>380.82</ele>
        <time>2017-10-15T13:39:08Z</time>
      </trkpt>
      <trkpt lat="45.13514" lon="5.76804">
        <ele>377.45</ele>
        <time>2017-10-15T13:39:21Z</time>
      </trkpt>
      <trkpt lat="45.13578" lon="5.76823">
        <ele>373.61</ele>
        <time>2017-10-15T13:39:31Z</time>
      </trkpt>
      <trkpt lat="45.1359" lon="5.76834">
        <ele>372.65</ele>
        <time>2017-10-15T13:39:33Z</time>
      </trkpt>
      <trkpt lat="45.13634" lon="5.76904">
        <ele>368.8</ele>
        <time>2017-10-15T13:39:43Z</time>
      </trkpt>
      <trkpt lat="45.13635" lon="5.76967">
        <ele>368.32</ele>
        <time>2017-10-15T13:39:52Z</time>
      </trkpt>
      <trkpt lat="45.1364" lon="5.76975">
        <ele>368.32</ele>
        <time>2017-10-15T13:39:54Z</time>
      </trkpt>
      <trkpt lat="45.13708" lon="5.77051">
        <ele>364.96</ele>
        <time>2017-10-15T13:40:25Z</time>
      </trkpt>
      <trkpt lat="45.13749" lon="5.77046">
        <ele>363.52</ele>
        <time>2017-10-15T13:40:33Z</time>
      </trkpt>
      <trkpt lat="45.13798" lon="5.7708">
        <ele>363.04</ele>
        <time>2017-10-15T13:40:44Z</time>
      </trkpt>
      <trkpt lat="45.13987" lon="5.77089">
        <ele>359.67</ele>
        <time>2017-10-15T13:41:18Z</time>
      </trkpt>
      <trkpt lat="45.14067" lon="5.77057">
        <ele>356.79</ele>
        <time>2017-10-15T13:41:34Z</time>
      </trkpt>
      <trkpt lat="45.14174" lon="5.77028">
        <ele>363.04</ele>
        <time>2017-10-15T13:41:56Z</time>
      </trkpt>
      <trkpt lat="45.14221" lon="5.77034">
        <ele>365.92</ele>
        <time>2017-10-15T13:42:10Z</time>
      </trkpt>
      <trkpt lat="45.14265" lon="5.77057">
        <ele>367.84</ele>
        <time>2017-10-15T13:42:26Z</time>
      </trkpt>
      <trkpt lat="45.14314" lon="5.77086">
        <ele>365.44</ele>
        <time>2017-10-15T13:42:38Z</time>
      </trkpt>
      <trkpt lat="45.14416" lon="5.7706">
        <ele>361.59</ele>
        <time>2017-10-15T13:42:54Z</time>
      </trkpt>
      <trkpt lat="45.14431" lon="5.77043">
        <ele>363.04</ele>
        <time>2017-10-15T13:42:58Z</time>
      </trkpt>
      <trkpt lat="45.1452" lon="5.76946">
        <ele>361.59</ele>
        <time>2017-10-15T13:43:19Z</time>
      </trkpt>
      <trkpt lat="45.14572" lon="5.76855">
        <ele>363.04</ele>
        <time>2017-10-15T13:43:35Z</time>
      </trkpt>
      <trkpt lat="45.14593" lon="5.76797">
        <ele>360.63</ele>
        <time>2017-10-15T13:43:44Z</time>
      </trkpt>
      <trkpt lat="45.14603" lon="5.76785">
        <ele>358.23</ele>
        <time>2017-10-15T13:43:46Z</time>
      </trkpt>
      <trkpt lat="45.14613" lon="5.76768">
        <ele>356.79</ele>
        <time>2017-10-15T13:43:48Z</time>
      </trkpt>
      <trkpt lat="45.14629" lon="5.76703">
        <ele>350.06</ele>
        <time>2017-10-15T13:43:54Z</time>
      </trkpt>
      <trkpt lat="45.1465" lon="5.76628">
        <ele>341.89</ele>
        <time>2017-10-15T13:44:00Z</time>
      </trkpt>
      <trkpt lat="45.14674" lon="5.76585">
        <ele>338.52</ele>
        <time>2017-10-15T13:44:04Z</time>
      </trkpt>
      <trkpt lat="45.14724" lon="5.76563">
        <ele>333.71</ele>
        <time>2017-10-15T13:44:10Z</time>
      </trkpt>
      <trkpt lat="45.14803" lon="5.7643">
        <ele>338.04</ele>
        <time>2017-10-15T13:44:25Z</time>
      </trkpt>
      <trkpt lat="45.14825" lon="5.76398">
        <ele>338.04</ele>
        <time>2017-10-15T13:44:31Z</time>
      </trkpt>
      <trkpt lat="45.14858" lon="5.76343">
        <ele>337.08</ele>
        <time>2017-10-15T13:44:40Z</time>
      </trkpt>
      <trkpt lat="45.14903" lon="5.76162">
        <ele>344.77</ele>
        <time>2017-10-15T13:45:19Z</time>
      </trkpt>
      <trkpt lat="45.1491" lon="5.76159">
        <ele>344.77</ele>
        <time>2017-10-15T13:45:22Z</time>
      </trkpt>
      <trkpt lat="45.15026" lon="5.76148">
        <ele>327.47</ele>
        <time>2017-10-15T13:45:38Z</time>
      </trkpt>
      <trkpt lat="45.1508" lon="5.76179">
        <ele>317.85</ele>
        <time>2017-10-15T13:45:44Z</time>
      </trkpt>
      <trkpt lat="45.15172" lon="5.76189">
        <ele>309.2</ele>
        <time>2017-10-15T13:45:53Z</time>
      </trkpt>
      <trkpt lat="45.15194" lon="5.76178">
        <ele>306.8</ele>
        <time>2017-10-15T13:45:56Z</time>
      </trkpt>
      <trkpt lat="45.15219" lon="5.76162">
        <ele>305.36</ele>
        <time>2017-10-15T13:46:02Z</time>
      </trkpt>
      <trkpt lat="45.15266" lon="5.76115">
        <ele>296.7</ele>
        <time>2017-10-15T13:46:13Z</time>
      </trkpt>
      <trkpt lat="45.15302" lon="5.76156">
        <ele>287.57</ele>
        <time>2017-10-15T13:46:23Z</time>
      </trkpt>
      <trkpt lat="45.1536" lon="5.76189">
        <ele>277.96</ele>
        <time>2017-10-15T13:46:31Z</time>
      </trkpt>
      <trkpt lat="45.15461" lon="5.76278">
        <ele>276.04</ele>
        <time>2017-10-15T13:46:47Z</time>
      </trkpt>
      <trkpt lat="45.1552" lon="5.76363">
        <ele>271.23</ele>
        <time>2017-10-15T13:46:59Z</time>
      </trkpt>
      <trkpt lat="45.1558" lon="5.76427">
        <ele>267.86</ele>
        <time>2017-10-15T13:47:11Z</time>
      </trkpt>
      <trkpt lat="45.1563" lon="5.76451">
        <ele>261.14</ele>
        <time>2017-10-15T13:47:18Z</time>
      </trkpt>
      <trkpt lat="45.1568" lon="5.76443">
        <ele>254.41</ele>
        <time>2017-10-15T13:47:24Z</time>
      </trkpt>
      <trkpt lat="45.15752" lon="5.76347">
        <ele>242.87</ele>
        <time>2017-10-15T13:47:45Z</time>
      </trkpt>
      <trkpt lat="45.1586" lon="5.76254">
        <ele>236.14</ele>
        <time>2017-10-15T13:48:05Z</time>
      </trkpt>
      <trkpt lat="45.16003" lon="5.76191">
        <ele>236.14</ele>
        <time>2017-10-15T13:48:43Z</time>
      </trkpt>
      <trkpt lat="45.16058" lon="5.76132">
        <ele>234.22</ele>
        <time>2017-10-15T13:49:00Z</time>
      </trkpt>
      <trkpt lat="45.16191" lon="5.76234">
        <ele>233.26</ele>
        <time>2017-10-15T13:49:34Z</time>
      </trkpt>
      <trkpt lat="45.1621" lon="5.76236">
        <ele>233.26</ele>
        <time>2017-10-15T13:49:39Z</time>
      </trkpt>
      <trkpt lat="45.16223" lon="5.76246">
        <ele>233.26</ele>
        <time>2017-10-15T13:49:42Z</time>
      </trkpt>
      <trkpt lat="45.16477" lon="5.75997">
        <ele>232.78</ele>
        <time>2017-10-15T13:50:35Z</time>
      </trkpt>
      <trkpt lat="45.16561" lon="5.75877">
        <ele>237.58</ele>
        <time>2017-10-15T13:50:57Z</time>
      </trkpt>
      <trkpt lat="45.16707" lon="5.75706">
        <ele>238.54</ele>
        <time>2017-10-15T13:51:42Z</time>
      </trkpt>
      <trkpt lat="45.16818" lon="5.75608">
        <ele>232.3</ele>
        <time>2017-10-15T13:52:05Z</time>
      </trkpt>
      <trkpt lat="45.16831" lon="5.75581">
        <ele>231.81</ele>
        <time>2017-10-15T13:52:09Z</time>
      </trkpt>
      <trkpt lat="45.16862" lon="5.7557">
        <ele>231.81</ele>
        <time>2017-10-15T13:52:15Z</time>
      </trkpt>
      <trkpt lat="45.16868" lon="5.75545">
        <ele>231.81</ele>
        <time>2017-10-15T13:52:19Z</time>
      </trkpt>
      <trkpt lat="45.16912" lon="5.75476">
        <ele>231.81</ele>
        <time>2017-10-15T13:52:33Z</time>
      </trkpt>
      <trkpt lat="45.17037" lon="5.75527">
        <ele>231.33</ele>
        <time>2017-10-15T13:53:00Z</time>
      </trkpt>
      <trkpt lat="45.17125" lon="5.75529">
        <ele>230.85</ele>
        <time>2017-10-15T13:53:19Z</time>
      </trkpt>
      <trkpt lat="45.17175" lon="5.75502">
        <ele>230.37</ele>
        <time>2017-10-15T13:53:29Z</time>
      </trkpt>
      <trkpt lat="45.1726" lon="5.75352">
        <ele>229.89</ele>
        <time>2017-10-15T13:54:00Z</time>
      </trkpt>
      <trkpt lat="45.17352" lon="5.75533">
        <ele>229.89</ele>
        <time>2017-10-15T13:54:36Z</time>
      </trkpt>
      <trkpt lat="45.17358" lon="5.75531">
        <ele>229.89</ele>
        <time>2017-10-15T13:54:40Z</time>
      </trkpt>
      <trkpt lat="45.17514" lon="5.75373">
        <ele>228.93</ele>
        <time>2017-10-15T13:55:25Z</time>
      </trkpt>
      <trkpt lat="45.17596" lon="5.75282">
        <ele>228.93</ele>
        <time>2017-10-15T13:55:48Z</time>
      </trkpt>
      <trkpt lat="45.1769" lon="5.75217">
        <ele>229.89</ele>
        <time>2017-10-15T13:56:12Z</time>
      </trkpt>
      <trkpt lat="45.17877" lon="5.75147">
        <ele>227.97</ele>
        <time>2017-10-15T13:56:47Z</time>
      </trkpt>
      <trkpt lat="45.17991" lon="5.75254">
        <ele>227.01</ele>
        <time>2017-10-15T13:57:16Z</time>
      </trkpt>
      <trkpt lat="45.18045" lon="5.7524">
        <ele>227.01</ele>
        <time>2017-10-15T13:57:29Z</time>
      </trkpt>
      <trkpt lat="45.18143" lon="5.75261">
        <ele>227.01</ele>
        <time>2017-10-15T13:57:55Z</time>
      </trkpt>
      <trkpt lat="45.18311" lon="5.75221">
        <ele>227.01</ele>
        <time>2017-10-15T13:58:38Z</time>
      </trkpt>
      <trkpt lat="45.18317" lon="5.75141">
        <ele>227.01</ele>
        <time>2017-10-15T13:58:52Z</time>
      </trkpt>
      <trkpt lat="45.18571" lon="5.75149">
        <ele>227.49</ele>
        <time>2017-10-15T13:59:58Z</time>
      </trkpt>
      <trkpt lat="45.18621" lon="5.74981">
        <ele>227.49</ele>
        <time>2017-10-15T14:00:27Z</time>
      </trkpt>
      <trkpt lat="45.18648" lon="5.74979">
        <ele>227.49</ele>
        <time>2017-10-15T14:00:35Z</time>
      </trkpt>
      <trkpt lat="45.18659" lon="5.75003">
        <ele>227.49</ele>
        <time>2017-10-15T14:00:40Z</time>
      </trkpt>
      <trkpt lat="45.18717" lon="5.75034">
        <ele>227.49</ele>
        <time>2017-10-15T14:00:58Z</time>
      </trkpt>
      <trkpt lat="45.18716" lon="5.7505">
        <ele>226.05</ele>
        <time>2017-10-15T14:01:23Z</time>
      </trkpt>
    </trkseg>
  </trk>
</gpx>